Time;durP1;ratioP1;P1;durP2;ratioP2;P2;SDS_P1;SDS_P2;PMS_P1;PMS_P2;Temp;Humidity;BMP_temperature;BMP_pressure;BME280_temperature;BME280_humidity;BME280_pressure;Samples;Min_cycle;Max_cycle;Signal;HPM_P1;HPM_P2
2022/03/21 00:01:23;;;;;;;10.25;5.30;;;2.00;53.00;;;;;;5093349;28;20169;-70
2022/03/21 00:03:49;;;;;;;10.35;5.72;;;2.00;52.80;;;;;;5098972;28;20088;-70
2022/03/21 00:06:15;;;;;;;12.60;5.37;;;2.00;52.70;;;;;;5097356;28;20032;-70
2022/03/21 00:08:43;;;;;;;9.80;5.27;;;2.00;52.40;;;;;;5094654;28;20012;-70
2022/03/21 00:11:09;;;;;;;12.40;5.72;;;2.00;52.60;;;;;;5097946;28;20008;-70
2022/03/21 00:13:35;;;;;;;9.03;5.73;;;2.00;52.50;;;;;;5094617;28;20084;-70
2022/03/21 00:16:01;;;;;;;10.98;5.68;;;2.00;52.70;;;;;;5096074;28;20047;-70
2022/03/21 00:18:27;;;;;;;11.47;6.03;;;2.00;52.70;;;;;;5095730;28;20051;-71
2022/03/21 00:20:54;;;;;;;10.38;5.65;;;1.90;52.60;;;;;;5098689;28;20084;-70
2022/03/21 00:23:21;;;;;;;9.73;5.55;;;1.90;52.70;;;;;;5097860;28;20027;-70
2022/03/21 00:25:47;;;;;;;7.55;4.65;;;1.90;52.70;;;;;;5096519;27;20036;-70
2022/03/21 00:28:14;;;;;;;10.87;5.10;;;1.90;52.80;;;;;;5098350;28;20101;-70
2022/03/21 00:30:41;;;;;;;;;;;1.90;52.70;;;;;;5094435;28;20077;-70
2022/03/21 00:33:07;;;;;;;11.43;5.90;;;1.90;53.50;;;;;;5096661;28;19904;-70
2022/03/21 00:35:34;;;;;;;14.43;5.70;;;1.90;53.50;;;;;;5092803;28;20050;-70
2022/03/21 00:38:00;;;;;;;10.05;5.88;;;1.90;53.80;;;;;;5095653;28;20012;-70
2022/03/21 00:40:26;;;;;;;10.43;5.53;;;1.90;53.10;;;;;;5093556;27;20028;-71
2022/03/21 00:42:52;;;;;;;9.30;5.50;;;1.90;52.90;;;;;;5097814;28;20124;-70
2022/03/21 00:45:19;;;;;;;10.65;6.30;;;1.90;52.70;;;;;;5092629;28;20031;-70
2022/03/21 00:47:47;;;;;;;10.77;5.00;;;1.90;52.80;;;;;;5097649;28;20039;-70
2022/03/21 00:50:15;;;;;;;10.75;5.38;;;1.90;53.10;;;;;;5092153;28;20919;-70
2022/03/21 00:52:44;;;;;;;11.32;6.10;;;1.90;52.90;;;;;;5097115;28;20019;-70
2022/03/21 00:55:11;;;;;;;9.60;5.43;;;1.90;53.00;;;;;;5093009;28;20107;-70
2022/03/21 00:57:42;;;;;;;9.27;5.72;;;1.80;53.10;;;;;;5097524;28;20536;-70
2022/03/21 01:00:12;;;;;;;9.20;5.57;;;1.80;52.90;;;;;;5090750;28;20024;-70
2022/03/21 01:02:39;;;;;;;8.63;5.38;;;1.80;53.00;;;;;;5097723;28;20527;-70
2022/03/21 01:05:07;;;;;;;12.80;5.68;;;1.80;53.30;;;;;;5092869;28;20031;-70
2022/03/21 01:07:34;;;;;;;10.07;5.68;;;1.80;53.60;;;;;;5094319;28;20019;-69
2022/03/21 01:10:00;;;;;;;13.85;5.68;;;1.80;53.90;;;;;;5090649;28;20738;-70
2022/03/21 01:12:27;;;;;;;11.43;5.27;;;1.80;53.50;;;;;;5097135;28;20019;-70
2022/03/21 01:14:54;;;;;;;12.77;5.50;;;1.80;53.60;;;;;;5094261;28;20105;-70
2022/03/21 01:17:21;;;;;;;10.90;5.55;;;1.80;53.40;;;;;;5096355;28;20050;-70
2022/03/21 01:19:46;;;;;;;9.10;5.07;;;1.80;53.20;;;;;;5096340;28;20066;-69
2022/03/21 01:22:13;;;;;;;7.53;4.40;;;1.80;53.30;;;;;;5093195;28;20066;-70
2022/03/21 01:24:40;;;;;;;12.23;5.53;;;1.80;53.40;;;;;;5096111;28;20034;-70
2022/03/21 01:27:07;;;;;;;9.07;4.70;;;1.80;53.60;;;;;;5092385;28;20024;-70
2022/03/21 01:29:33;;;;;;;9.48;4.85;;;1.80;53.60;;;;;;5096583;28;20034;-70
2022/03/21 01:31:59;;;;;;;6.70;4.43;;;1.80;54.00;;;;;;5091794;28;20106;-70
2022/03/21 01:34:25;;;;;;;10.47;5.53;;;1.80;53.90;;;;;;5096611;28;20436;-70
2022/03/21 01:36:51;;;;;;;10.47;5.07;;;1.80;53.80;;;;;;5096702;28;20023;-69
2022/03/21 01:39:17;;;;;;;9.63;5.80;;;1.70;54.00;;;;;;5093271;28;20077;-70
2022/03/21 01:41:43;;;;;;;9.13;5.10;;;1.70;53.60;;;;;;5095613;28;20031;-70
2022/03/21 01:44:09;;;;;;;8.40;5.00;;;1.60;54.10;;;;;;5093371;28;20047;-70
2022/03/21 01:46:37;;;;;;;8.55;4.70;;;1.60;53.90;;;;;;5095823;28;20099;-70
2022/03/21 01:49:04;;;;;;;8.25;4.82;;;1.60;54.20;;;;;;5092299;28;20020;-70
2022/03/21 01:51:31;;;;;;;8.70;4.68;;;1.60;54.70;;;;;;5093035;28;20045;-69
2022/03/21 01:56:45;;;;;;;9.80;5.13;;;1.60;54.10;;;;;;5096186;28;20026;-69
2022/03/21 01:59:13;;;;;;;6.90;4.68;;;1.70;54.20;;;;;;5092630;28;20019;-70
2022/03/21 02:01:39;;;;;;;10.70;5.90;;;1.70;54.00;;;;;;5095190;28;20094;-70
2022/03/21 02:04:06;;;;;;;11.27;4.93;;;1.70;54.10;;;;;;5090002;28;20033;-70
2022/03/21 02:06:32;;;;;;;8.88;4.70;;;1.70;54.00;;;;;;5093447;28;20041;-70
2022/03/21 02:08:59;;;;;;;10.03;5.43;;;1.70;54.30;;;;;;5092020;28;20020;-70
2022/03/21 02:11:26;;;;;;;;;;;1.70;54.40;;;;;;5096168;28;20032;-70
2022/03/21 02:13:57;;;;;;;9.52;4.57;;;1.70;54.50;;;;;;5096452;28;19908;-70
2022/03/21 02:16:24;;;;;;;8.85;4.70;;;1.50;54.70;;;;;;5094474;28;20623;-70
2022/03/21 02:18:50;;;;;;;9.00;4.70;;;1.60;54.60;;;;;;5097531;28;20521;-69
2022/03/21 02:21:57;;;;;;;8.30;4.63;;;1.60;54.50;;;;;;5088578;28;20031;-70
2022/03/21 02:24:42;;;;;;;6.90;4.25;;;1.60;54.70;;;;;;5065461;28;20043;-69
2022/03/21 02:27:10;;;;;;;9.27;4.50;;;1.60;54.70;;;;;;5090416;28;20107;-69
2022/03/21 02:29:37;;;;;;;7.30;4.40;;;1.60;54.90;;;;;;5096302;28;20015;-70
2022/03/21 02:32:03;;;;;;;9.25;4.80;;;1.60;54.60;;;;;;5092019;28;20158;-69
2022/03/21 02:34:29;;;;;;;9.43;4.82;;;1.60;54.60;;;;;;5097626;28;20066;-69
2022/03/21 02:37:00;;;;;;;11.88;5.90;;;1.50;54.80;;;;;;5091820;28;20571;-69
2022/03/21 02:39:29;;;;;;;9.15;5.28;;;1.50;54.70;;;;;;5095043;28;20047;-69
2022/03/21 02:41:55;;;;;;;10.27;5.30;;;1.50;55.00;;;;;;5090354;28;20437;-70
2022/03/21 02:44:22;;;;;;;9.40;4.95;;;1.50;54.80;;;;;;5095033;28;20016;-70
2022/03/21 02:46:48;;;;;;;7.05;4.22;;;1.50;54.90;;;;;;5095287;28;20031;-70
2022/03/21 02:49:14;;;;;;;6.93;4.87;;;1.50;54.70;;;;;;5091139;28;20031;-70
2022/03/21 02:51:42;;;;;;;10.85;4.97;;;1.50;54.80;;;;;;5098519;28;20069;-69
2022/03/21 02:54:09;;;;;;;9.05;5.38;;;1.50;54.90;;;;;;5096302;28;20057;-70
2022/03/21 02:56:36;;;;;;;;;;;1.50;55.30;;;;;;5098994;28;20019;-70
2022/03/21 02:59:02;;;;;;;11.02;4.70;;;1.50;55.10;;;;;;5094554;28;19910;-70
2022/03/21 03:01:29;;;;;;;8.15;4.47;;;1.50;55.20;;;;;;5099195;28;20031;-69
2022/03/21 03:03:54;;;;;;;8.48;5.03;;;1.50;55.20;;;;;;5097802;28;20598;-70
2022/03/21 03:06:20;;;;;;;8.30;4.37;;;1.50;55.10;;;;;;5098114;28;20103;-70
2022/03/21 03:08:46;;;;;;;8.77;4.10;;;1.50;55.20;;;;;;5099541;28;20020;-70
2022/03/21 03:11:12;;;;;;;12.07;5.03;;;1.50;55.20;;;;;;5094149;28;20047;-70
2022/03/21 03:13:38;;;;;;;7.07;4.70;;;1.50;55.30;;;;;;5097835;28;20679;-69
2022/03/21 03:16:04;;;;;;;8.50;4.70;;;1.50;55.20;;;;;;5095625;28;20039;-70
2022/03/21 03:18:32;;;;;;;9.65;4.85;;;1.50;55.40;;;;;;5099429;28;20037;-70
2022/03/21 03:20:58;;;;;;;6.32;4.28;;;1.50;55.20;;;;;;5094678;28;20484;-70
2022/03/21 03:23:26;;;;;;;7.32;4.35;;;1.50;55.40;;;;;;5097791;28;20032;-69
2022/03/21 03:26:04;;;;;;;8.15;4.22;;;1.50;55.40;;;;;;5098198;28;20460;-70
2022/03/21 03:28:31;;;;;;;6.68;3.92;;;1.50;55.70;;;;;;5097662;28;20019;-71
2022/03/21 03:31:00;;;;;;;;;;;1.50;56.20;;;;;;5095893;28;20027;-70
2022/03/21 03:33:26;;;;;;;9.98;4.68;;;1.50;56.30;;;;;;5099131;28;19911;-70
2022/03/21 03:35:53;;;;;;;;;;;1.50;56.70;;;;;;5099513;28;20049;-70
2022/03/21 03:38:19;;;;;;;7.00;4.25;;;1.50;57.10;;;;;;5095444;28;19907;-70
2022/03/21 03:40:45;;;;;;;8.23;4.27;;;1.40;57.30;;;;;;5098026;28;20066;-70
2022/03/21 03:43:12;;;;;;;6.33;3.93;;;1.40;58.00;;;;;;5093989;28;20376;-70
2022/03/21 03:45:38;;;;;;;8.50;5.03;;;1.40;58.20;;;;;;5097282;28;20023;-69
2022/03/21 03:48:04;;;;;;;8.63;4.93;;;1.40;58.70;;;;;;5094163;28;20035;-70
2022/03/21 03:50:30;;;;;;;9.45;4.72;;;1.40;57.90;;;;;;5098036;28;20023;-70
2022/03/21 03:52:56;;;;;;;8.75;4.50;;;1.30;57.80;;;;;;5098495;28;20055;-70
2022/03/21 03:55:22;;;;;;;8.63;4.27;;;1.30;58.10;;;;;;5095842;28;20047;-70
2022/03/21 03:57:48;;;;;;;11.33;5.03;;;1.30;57.90;;;;;;5098438;28;20433;-70
2022/03/21 04:00:16;;;;;;;8.80;4.70;;;1.30;57.90;;;;;;5093571;28;20053;-69
2022/03/21 04:05:27;;;;;;;8.32;4.43;;;1.20;58.00;;;;;;5097728;28;20031;-70
2022/03/21 04:07:53;;;;;;;8.83;5.03;;;1.20;58.20;;;;;;5095666;28;20028;-69
2022/03/21 04:10:22;;;;;;;8.48;4.70;;;1.20;59.30;;;;;;5093863;28;20354;-69
2022/03/21 04:12:49;;;;;;;8.27;4.38;;;1.20;59.20;;;;;;5097702;28;20103;-70
2022/03/21 04:15:20;;;;;;;7.90;4.18;;;1.20;59.40;;;;;;5094143;28;20034;-70
2022/03/21 04:17:47;;;;;;;9.23;4.80;;;1.20;59.70;;;;;;5096169;28;20039;-70
2022/03/21 04:20:13;;;;;;;7.35;4.30;;;1.20;60.00;;;;;;5093510;28;20019;-70
2022/03/21 04:22:39;;;;;;;8.52;5.07;;;1.10;60.10;;;;;;5097538;28;20028;-70
2022/03/21 04:25:07;;;;;;;8.10;4.47;;;1.10;60.60;;;;;;5094219;28;20425;-70
2022/03/21 04:27:33;;;;;;;7.70;4.57;;;1.00;60.80;;;;;;5097825;28;20098;-69
2022/03/21 04:30:00;;;;;;;9.38;4.68;;;1.00;60.90;;;;;;5097620;28;20496;-70
2022/03/21 04:32:26;;;;;;;;;;;0.90;61.20;;;;;;5097240;28;20015;-69
2022/03/21 04:34:51;;;;;;;8.77;4.30;;;0.90;60.10;;;;;;5096482;28;19933;-69
2022/03/21 04:37:17;;;;;;;7.30;4.33;;;0.90;60.80;;;;;;5093998;28;20659;-70
2022/03/21 04:39:42;;;;;;;10.37;6.27;;;0.90;61.10;;;;;;5095880;28;20054;-70
2022/03/21 04:42:10;;;;;;;9.23;4.97;;;0.90;61.30;;;;;;5093047;28;20392;-70
2022/03/21 04:44:36;;;;;;;10.38;5.82;;;0.90;61.70;;;;;;5097239;28;20028;-70
2022/03/21 04:47:02;;;;;;;10.57;6.17;;;0.90;62.00;;;;;;5094971;28;20074;-70
2022/03/21 04:49:28;;;;;;;8.93;5.77;;;0.90;61.80;;;;;;5095400;28;20578;-70
2022/03/21 04:51:54;;;;;;;8.00;5.83;;;0.90;62.20;;;;;;5097855;28;20027;-70
2022/03/21 04:54:19;;;;;;;10.37;5.43;;;0.90;62.40;;;;;;5092552;28;20489;-70
2022/03/21 04:56:45;;;;;;;11.13;6.03;;;0.90;61.70;;;;;;5096722;28;20764;-70
2022/03/21 04:59:10;;;;;;;15.70;5.70;;;0.90;62.10;;;;;;5093110;28;20085;-70
2022/03/21 05:01:37;;;;;;;10.00;5.33;;;0.90;62.20;;;;;;5098487;28;20421;-69
2022/03/21 05:04:03;;;;;;;8.25;4.78;;;0.80;62.60;;;;;;5095440;28;20019;-70
2022/03/21 05:06:29;;;;;;;12.90;6.10;;;0.90;63.00;;;;;;5096913;27;20050;-70
2022/03/21 05:08:56;;;;;;;10.37;4.90;;;0.90;63.10;;;;;;5097385;28;20042;-70
2022/03/21 05:11:21;;;;;;;13.13;5.43;;;1.10;63.50;;;;;;5092578;28;20820;-70
2022/03/21 05:13:47;;;;;;;7.40;4.90;;;1.40;63.10;;;;;;5095100;28;20028;-69
2022/03/21 05:16:13;;;;;;;9.50;5.07;;;1.70;62.30;;;;;;5092303;28;20053;-70
2022/03/21 05:18:39;;;;;;;9.13;4.87;;;2.00;60.20;;;;;;5095737;28;20056;-69
2022/03/21 05:21:05;;;;;;;9.17;5.60;;;2.50;59.40;;;;;;5092246;28;20257;-69
2022/03/21 05:31:45;;;;;;;8.73;4.80;;;6.30;51.00;;;;;;5094586;28;20634;-70
2022/03/21 05:36:55;;;;;;;12.55;6.72;;;8.20;46.70;;;;;;5095609;28;20162;-70
2022/03/21 05:39:24;;;;;;;8.83;5.97;;;9.10;44.60;;;;;;5092974;28;20015;-70
2022/03/21 05:41:53;;;;;;;10.75;6.95;;;9.60;43.60;;;;;;5095144;28;20029;-70
2022/03/21 05:44:19;;;;;;;11.18;6.00;;;10.10;42.40;;;;;;5093002;28;20020;-70
2022/03/21 05:46:45;;;;;;;10.35;6.50;;;10.40;41.80;;;;;;5092377;28;20522;-71
2022/03/21 05:49:11;;;;;;;10.55;6.45;;;10.90;40.60;;;;;;5093381;28;20023;-70
2022/03/21 05:51:38;;;;;;;10.53;6.50;;;11.60;39.60;;;;;;5090833;28;20024;-71
2022/03/21 05:54:09;;;;;;;10.73;6.78;;;12.00;39.10;;;;;;5097182;28;20258;-71
2022/03/21 05:56:36;;;;;;;11.48;7.05;;;12.60;38.20;;;;;;5090265;28;20058;-71
2022/03/21 06:01:48;;;;;;;10.95;7.35;;;13.60;36.40;;;;;;5089690;28;20062;-71
2022/03/21 06:04:15;;;;;;;12.45;7.45;;;14.10;35.10;;;;;;5095130;28;20030;-71
2022/03/21 06:06:41;;;;;;;10.45;7.35;;;13.90;34.70;;;;;;5090865;28;20023;-71
2022/03/21 06:09:07;;;;;;;;;;;14.60;34.30;;;;;;5095071;28;20019;-70
2022/03/21 06:11:34;;;;;;;13.25;8.20;;;14.90;33.50;;;;;;5094379;28;19915;-71
2022/03/21 06:14:00;;;;;;;12.68;8.18;;;15.10;32.70;;;;;;5090034;28;20081;-70
2022/03/21 06:16:26;;;;;;;12.52;8.10;;;14.90;33.30;;;;;;5095400;28;20035;-72
2022/03/21 06:18:53;;;;;;;12.40;8.43;;;15.20;32.90;;;;;;5091788;28;20369;-72
2022/03/21 06:21:19;;;;;;;11.68;7.78;;;15.70;33.30;;;;;;5095056;28;20617;-72
2022/03/21 06:23:46;;;;;;;13.38;8.65;;;16.00;33.10;;;;;;5094130;28;20035;-71
2022/03/21 06:26:12;;;;;;;16.27;8.52;;;15.70;31.70;;;;;;5099171;28;20107;-71
2022/03/21 06:28:38;;;;;;;14.93;8.52;;;16.00;31.40;;;;;;5095257;28;20024;-71
2022/03/21 06:31:04;;;;;;;13.02;8.02;;;15.40;32.70;;;;;;5098642;28;20059;-71
2022/03/21 06:33:31;;;;;;;15.45;8.65;;;15.50;31.80;;;;;;5100190;28;20666;-70
2022/03/21 06:35:59;;;;;;;14.77;8.60;;;15.60;31.50;;;;;;5096012;28;20804;-71
2022/03/21 06:38:25;;;;;;;12.63;8.95;;;15.10;32.20;;;;;;5099264;28;20074;-71
2022/03/21 06:40:52;;;;;;;14.82;8.73;;;14.90;32.40;;;;;;5094019;28;20416;-71
2022/03/21 06:43:19;;;;;;;;;;;14.30;32.50;;;;;;5099319;28;20474;-71
2022/03/21 06:45:47;;;;;;;11.75;8.35;;;13.80;32.20;;;;;;5094885;28;19907;-71
2022/03/21 06:48:13;;;;;;;14.73;9.30;;;13.60;32.70;;;;;;5098941;28;20877;-71
2022/03/21 06:50:39;;;;;;;10.50;7.40;;;13.90;33.50;;;;;;5093588;28;20030;-71
2022/03/21 06:53:05;;;;;;;12.30;8.83;;;13.10;33.50;;;;;;5099952;28;20015;-70
2022/03/21 06:55:30;;;;;;;15.60;8.97;;;13.20;33.50;;;;;;5096697;28;20292;-70
2022/03/21 06:57:56;;;;;;;11.63;7.67;;;12.40;34.60;;;;;;5094181;28;20599;-70
2022/03/21 07:00:22;;;;;;;14.10;7.80;;;12.80;34.10;;;;;;5099338;28;20475;-71
2022/03/21 07:02:47;;;;;;;13.98;8.48;;;13.60;33.60;;;;;;5095834;28;20030;-71
2022/03/21 07:05:13;;;;;;;13.07;8.63;;;14.60;33.40;;;;;;5098902;28;20031;-71
2022/03/21 07:07:39;;;;;;;15.18;8.38;;;15.10;32.20;;;;;;5096545;28;20034;-71
2022/03/21 07:10:05;;;;;;;11.55;7.85;;;15.10;31.40;;;;;;5098764;28;20097;-70
2022/03/21 07:12:31;;;;;;;;;;;14.20;32.60;;;;;;5096285;28;20110;-71
2022/03/21 07:14:58;;;;;;;11.63;7.85;;;15.10;32.00;;;;;;5095319;27;19943;-71
2022/03/21 07:17:24;;;;;;;12.25;8.05;;;16.00;31.40;;;;;;5097147;28;20049;-70
2022/03/21 07:19:49;;;;;;;12.30;7.65;;;15.80;30.50;;;;;;5094936;28;20027;-71
2022/03/21 07:22:15;;;;;;;10.20;7.30;;;15.70;30.90;;;;;;5097870;28;20028;-71
2022/03/21 07:24:41;;;;;;;10.20;6.97;;;15.50;30.60;;;;;;5096258;28;20012;-71
2022/03/21 07:27:07;;;;;;;10.13;6.80;;;16.20;30.60;;;;;;5098375;28;20055;-71
2022/03/21 07:29:34;;;;;;;11.98;7.28;;;17.00;29.90;;;;;;5098064;28;20138;-71
2022/03/21 07:32:00;;;;;;;10.73;6.63;;;15.50;30.10;;;;;;5092726;28;20998;-71
2022/03/21 07:34:26;;;;;;;9.75;7.28;;;14.50;30.90;;;;;;5096569;28;20020;-70
2022/03/21 07:36:53;;;;;;;13.57;7.27;;;14.00;32.20;;;;;;5093843;28;20499;-71
2022/03/21 07:39:18;;;;;;;11.32;7.40;;;15.10;31.60;;;;;;5102731;28;20023;-71
2022/03/21 07:41:46;;;;;;;10.80;6.83;;;15.20;30.60;;;;;;5094221;28;20031;-70
2022/03/21 07:47:17;;;;;;;8.98;6.85;;;15.10;30.30;;;;;;5098120;28;20319;-71
2022/03/21 07:49:43;;;;;;;11.00;6.20;;;14.10;31.00;;;;;;5091841;28;20817;-73
2022/03/21 07:52:09;;;;;;;10.88;6.93;;;14.40;31.50;;;;;;5097931;28;20444;-73
2022/03/21 07:54:35;;;;;;;9.07;7.07;;;15.50;30.60;;;;;;5097937;28;20463;-70
2022/03/21 07:57:00;;;;;;;9.02;6.38;;;15.20;30.30;;;;;;5092796;28;20055;-70
2022/03/21 07:59:26;;;;;;;9.47;6.47;;;15.00;30.70;;;;;;5097860;28;20024;-70
2022/03/21 08:01:52;;;;;;;9.03;6.70;;;13.70;31.70;;;;;;5094170;28;20062;-71
2022/03/21 08:04:17;;;;;;;11.67;6.77;;;13.40;33.10;;;;;;5097415;28;20055;-71
2022/03/21 08:06:44;;;;;;;9.40;6.67;;;14.60;32.80;;;;;;5092005;27;20039;-71
2022/03/21 08:09:09;;;;;;;10.10;6.65;;;14.10;31.70;;;;;;5098261;28;20018;-71
2022/03/21 08:11:35;;;;;;;12.93;6.47;;;15.00;32.00;;;;;;5095283;28;20368;-70
2022/03/21 08:14:01;;;;;;;9.50;6.37;;;15.10;30.80;;;;;;5091849;28;21228;-70
2022/03/21 08:16:26;;;;;;;10.77;7.03;;;14.40;30.90;;;;;;5096917;28;20594;-70
2022/03/21 08:18:52;;;;;;;11.87;6.50;;;12.90;32.10;;;;;;5094166;28;20264;-70
2022/03/21 08:21:19;;;;;;;9.85;6.43;;;13.80;32.20;;;;;;5097368;28;20046;-70
2022/03/21 08:23:46;;;;;;;7.65;5.95;;;13.80;31.90;;;;;;5093918;28;20027;-70
2022/03/21 08:26:13;;;;;;;9.55;5.75;;;13.90;31.90;;;;;;5095450;28;20107;-70
2022/03/21 08:28:39;;;;;;;9.10;5.88;;;15.10;31.80;;;;;;5098970;28;20456;-71
2022/03/21 08:31:05;;;;;;;9.93;6.15;;;15.50;30.60;;;;;;5092151;28;20050;-71
2022/03/21 08:33:31;;;;;;;9.93;6.30;;;15.90;30.50;;;;;;5094519;28;20020;-71
2022/03/21 08:35:57;;;;;;;10.18;5.47;;;15.80;30.00;;;;;;5092043;28;20027;-70
2022/03/21 08:38:22;;;;;;;9.48;5.30;;;14.90;30.00;;;;;;5096965;28;20015;-71
2022/03/21 08:40:48;;;;;;;8.40;5.55;;;14.40;30.10;;;;;;5092448;28;20027;-71
2022/03/21 08:43:14;;;;;;;8.67;5.33;;;13.50;30.90;;;;;;5096878;28;20023;-71
2022/03/21 08:45:41;;;;;;;11.25;5.43;;;14.30;31.40;;;;;;5098431;28;20273;-71
2022/03/21 08:48:07;;;;;;;8.55;5.15;;;14.40;30.50;;;;;;5091745;28;20047;-71
2022/03/21 08:50:34;;;;;;;8.18;5.10;;;14.40;30.50;;;;;;5097039;28;20468;-71
2022/03/21 08:53:00;;;;;;;7.63;4.85;;;15.10;30.80;;;;;;5093363;28;20059;-71
2022/03/21 08:55:26;;;;;;;7.13;5.45;;;14.50;30.40;;;;;;5094865;28;20051;-71
2022/03/21 08:57:52;;;;;;;8.73;5.45;;;15.10;30.00;;;;;;5091616;28;20035;-71
2022/03/21 09:00:18;;;;;;;10.40;5.50;;;14.20;30.00;;;;;;5096993;28;20054;-71
2022/03/21 09:02:46;;;;;;;8.65;4.93;;;13.60;30.80;;;;;;5095535;28;20957;-71
2022/03/21 09:05:14;;;;;;;8.30;4.65;;;13.40;31.10;;;;;;5096569;28;20016;-71
2022/03/21 09:07:41;;;;;;;7.95;4.88;;;14.40;30.80;;;;;;5095814;28;20047;-70
2022/03/21 09:10:08;;;;;;;10.65;4.50;;;14.40;30.30;;;;;;5093396;28;20033;-71
2022/03/21 09:12:34;;;;;;;10.43;5.20;;;14.40;29.80;;;;;;5095691;28;20019;-70
2022/03/21 09:15:00;;;;;;;7.03;5.00;;;14.20;29.90;;;;;;5092655;28;20011;-70
2022/03/21 09:17:28;;;;;;;6.87;5.10;;;13.40;30.60;;;;;;5096755;28;20305;-70
2022/03/21 09:19:54;;;;;;;7.90;5.10;;;13.10;30.90;;;;;;5093015;28;20024;-71
2022/03/21 09:22:19;;;;;;;10.63;4.87;;;12.80;31.20;;;;;;5096382;28;20027;-71
2022/03/21 09:24:45;;;;;;;6.37;4.77;;;13.00;30.90;;;;;;5095440;28;20107;-71
2022/03/21 09:27:11;;;;;;;6.40;4.60;;;13.50;30.70;;;;;;5093258;28;20027;-71
2022/03/21 09:29:37;;;;;;;7.60;5.35;;;12.60;30.40;;;;;;5095076;28;20026;-71
2022/03/21 09:32:04;;;;;;;7.72;4.75;;;11.90;31.00;;;;;;5090183;28;20550;-71
2022/03/21 09:34:32;;;;;;;7.47;4.95;;;11.90;32.00;;;;;;5093247;28;20418;-71
2022/03/21 09:36:58;;;;;;;8.98;5.15;;;13.50;31.30;;;;;;5092306;28;20023;-70
2022/03/21 09:39:23;;;;;;;6.15;4.63;;;13.70;29.70;;;;;;5094518;28;20089;-70
2022/03/21 09:41:50;;;;;;;9.20;4.95;;;14.20;29.20;;;;;;5089403;28;20448;-71
2022/03/21 09:44:15;;;;;;;;;;;13.90;29.50;;;;;;5094261;28;20063;-71
2022/03/21 09:46:44;;;;;;;6.78;4.72;;;14.50;29.50;;;;;;5093917;28;19947;-71
2022/03/21 09:49:12;;;;;;;10.43;4.25;;;15.20;29.30;;;;;;5091871;28;20069;-71
2022/03/21 09:51:39;;;;;;;6.15;4.50;;;16.00;29.10;;;;;;5096105;28;20464;-70
2022/03/21 09:54:05;;;;;;;7.72;4.72;;;14.40;28.20;;;;;;5092162;28;20145;-70
2022/03/21 09:56:31;;;;;;;8.37;4.43;;;13.20;28.90;;;;;;5093999;28;20130;-71
2022/03/21 09:59:00;;;;;;;8.10;5.57;;;13.20;29.80;;;;;;5090880;28;20256;-71
2022/03/21 10:01:30;;;;;;;7.20;4.88;;;14.20;28.70;;;;;;5093209;28;20468;-71
2022/03/21 10:03:57;;;;;;;8.70;4.50;;;13.80;29.10;;;;;;5092450;28;20035;-71
2022/03/21 10:06:40;;;;;;;7.75;5.20;;;13.70;29.40;;;;;;5095672;28;20419;-71
2022/03/21 10:09:15;;;;;;;7.35;4.80;;;14.10;29.20;;;;;;5090817;28;20560;-71
2022/03/21 10:11:53;;;;;;;7.93;5.53;;;14.60;28.90;;;;;;5093292;28;20140;-71
2022/03/21 10:14:24;;;;;;;10.55;4.88;;;14.70;29.20;;;;;;5093778;28;20438;-71
2022/03/21 10:17:12;;;;;;;7.10;5.43;;;15.50;28.90;;;;;;5088953;28;20078;-71
2022/03/21 10:19:52;;;;;;;7.90;5.38;;;15.70;28.80;;;;;;5091971;28;20131;-71
2022/03/21 10:22:20;;;;;;;7.22;4.90;;;14.70;28.70;;;;;;5094959;28;20024;-70
2022/03/21 10:24:51;;;;;;;6.93;4.72;;;13.90;29.30;;;;;;5095244;28;20395;-71
2022/03/21 10:27:36;;;;;;;9.35;4.78;;;13.80;29.60;;;;;;5095071;28;20019;-71
2022/03/21 10:30:07;;;;;;;6.70;4.68;;;13.90;30.00;;;;;;5088979;28;20019;-71
2022/03/21 10:32:42;;;;;;;10.45;5.40;;;14.30;29.10;;;;;;5092840;28;20047;-71
2022/03/21 10:35:16;;;;;;;7.55;4.75;;;15.20;28.40;;;;;;5089402;28;20031;-71
2022/03/21 10:37:58;;;;;;;6.70;5.10;;;15.50;28.60;;;;;;5095068;28;20047;-71
2022/03/21 10:40:30;;;;;;;7.22;4.40;;;15.10;27.90;;;;;;5094808;28;20031;-71
2022/03/21 10:42:59;;;;;;;5.90;4.07;;;14.50;27.80;;;;;;5091126;28;20052;-71
2022/03/21 10:45:48;;;;;;;7.32;4.20;;;14.40;28.10;;;;;;5094911;28;20050;-70
2022/03/21 10:48:16;;;;;;;6.82;4.93;;;14.80;27.90;;;;;;5089242;28;20124;-70
2022/03/21 10:50:50;;;;;;;7.53;4.60;;;14.10;28.30;;;;;;5092425;28;20015;-70
2022/03/21 10:53:28;;;;;;;14.70;4.90;;;13.70;29.20;;;;;;5093265;28;20472;-70
2022/03/21 10:55:57;;;;;;;6.72;4.88;;;14.20;28.90;;;;;;5090401;28;20036;-71
2022/03/21 10:58:33;;;;;;;7.53;5.13;;;14.40;28.90;;;;;;5095099;28;20053;-70
2022/03/21 11:01:23;;;;;;;9.00;5.00;;;14.20;29.20;;;;;;5089434;28;20027;-71
2022/03/21 11:03:52;;;;;;;7.40;4.72;;;15.10;28.30;;;;;;5093818;28;20746;-70
2022/03/21 11:06:18;;;;;;;11.48;4.93;;;14.80;28.60;;;;;;5092569;28;20039;-70
2022/03/21 11:08:47;;;;;;;9.32;5.60;;;13.70;28.70;;;;;;5093661;28;20765;-70
2022/03/21 11:11:13;;;;;;;9.60;4.32;;;13.40;29.50;;;;;;5093714;28;20020;-70
2022/03/21 11:13:39;;;;;;;6.57;4.88;;;12.50;29.60;;;;;;5098456;27;20035;-70
2022/03/21 11:16:05;;;;;;;14.48;4.57;;;12.60;30.40;;;;;;5095971;27;20038;-70
2022/03/21 11:18:32;;;;;;;8.63;5.63;;;13.20;30.80;;;;;;5098695;27;20062;-70
2022/03/21 11:20:59;;;;;;;7.95;5.35;;;13.20;29.90;;;;;;5093253;28;20468;-71
2022/03/21 11:23:25;;;;;;;7.55;4.95;;;12.40;30.10;;;;;;5098059;28;20084;-70
2022/03/21 11:26:22;;;;;;;7.22;4.95;;;12.40;30.70;;;;;;5099176;28;20012;-70
2022/03/21 11:29:22;;;;;;;7.97;4.57;;;12.20;31.40;;;;;;5097669;28;20035;-70
2022/03/21 11:32:12;;;;;;;8.15;5.10;;;12.40;30.50;;;;;;5093376;28;20058;-70
2022/03/21 11:34:55;;;;;;;7.55;4.90;;;12.60;30.60;;;;;;5094409;28;20368;-70
2022/03/21 11:37:31;;;;;;;7.10;4.10;;;11.90;30.60;;;;;;5098721;28;20021;-70
2022/03/21 11:40:27;;;;;;;6.20;4.20;;;12.30;30.70;;;;;;5096786;28;20040;-70
2022/03/21 11:42:56;;;;;;;6.70;4.45;;;11.90;29.80;;;;;;5098273;28;20415;-70
2022/03/21 11:45:34;;;;;;;7.95;4.60;;;11.90;30.20;;;;;;5097038;28;20042;-70
2022/03/21 11:48:18;;;;;;;5.35;3.88;;;12.10;30.30;;;;;;5098660;28;20743;-70
2022/03/21 11:50:50;;;;;;;9.45;4.38;;;12.00;30.40;;;;;;5092705;28;20019;-70
2022/03/21 11:53:25;;;;;;;7.50;3.65;;;12.20;30.00;;;;;;5098294;28;21007;-70
2022/03/21 11:55:52;;;;;;;10.27;4.22;;;12.40;29.50;;;;;;5097486;28;20042;-71
2022/03/21 11:58:38;;;;;;;6.88;3.97;;;12.30;29.00;;;;;;5097720;28;20047;-70
2022/03/21 12:01:07;;;;;;;8.88;4.25;;;12.40;30.40;;;;;;5093842;28;20509;-70
2022/03/21 12:03:33;;;;;;;6.45;4.28;;;12.50;30.30;;;;;;5089925;28;20037;-70
2022/03/21 12:06:17;;;;;;;;;;;12.40;29.90;;;;;;5098631;28;20031;-71
2022/03/21 12:08:45;;;;;;;7.30;4.50;;;12.50;30.00;;;;;;5094680;28;19912;-70
2022/03/21 12:11:37;;;;;;;6.15;3.97;;;12.60;30.20;;;;;;5097084;28;20137;-70
2022/03/21 12:14:36;;;;;;;7.50;4.43;;;12.90;30.10;;;;;;5095157;28;20023;-72
2022/03/21 12:17:01;;;;;;;9.65;4.35;;;12.40;29.50;;;;;;5094925;28;20032;-70
2022/03/21 12:19:48;;;;;;;6.20;4.23;;;12.00;30.60;;;;;;5093011;28;20023;-70
2022/03/21 12:22:36;;;;;;;6.60;3.78;;;11.90;30.00;;;;;;5094527;28;20023;-70
2022/03/21 12:25:23;;;;;;;8.52;4.25;;;11.70;29.50;;;;;;5094814;28;20011;-70
2022/03/21 12:27:52;;;;;;;6.70;4.07;;;11.90;30.10;;;;;;5093974;28;20055;-70
2022/03/21 12:30:21;;;;;;;6.13;3.78;;;12.10;29.90;;;;;;5095298;28;20026;-70
2022/03/21 12:33:14;;;;;;;6.55;3.90;;;12.20;29.60;;;;;;5093596;28;20027;-70
2022/03/21 12:35:45;;;;;;;6.80;4.30;;;12.30;29.60;;;;;;5091142;28;20487;-70
2022/03/21 12:38:14;;;;;;;7.13;4.43;;;12.20;29.70;;;;;;5096759;28;20023;-70
2022/03/21 12:40:52;;;;;;;8.35;4.28;;;12.10;29.80;;;;;;5089552;28;20035;-70
2022/03/21 12:43:41;;;;;;;7.43;4.53;;;11.80;29.70;;;;;;5095141;28;20567;-70
2022/03/21 12:46:07;;;;;;;8.07;4.10;;;11.60;29.80;;;;;;5094337;28;20543;-70
2022/03/21 12:48:35;;;;;;;5.67;3.77;;;11.50;29.90;;;;;;5088786;28;20032;-70
2022/03/21 12:51:04;;;;;;;5.97;4.25;;;11.60;30.30;;;;;;5097085;28;20615;-71
2022/03/21 12:53:44;;;;;;;7.15;4.25;;;11.40;29.80;;;;;;5093513;28;20357;-70
2022/03/21 12:56:12;;;;;;;6.35;4.07;;;11.40;30.00;;;;;;5095330;28;20020;-70
2022/03/21 12:58:45;;;;;;;7.45;4.32;;;11.30;29.80;;;;;;5090957;28;20027;-70
2022/03/21 13:01:16;;;;;;;6.40;4.22;;;11.50;29.70;;;;;;5091406;28;20076;-70
2022/03/21 13:03:42;;;;;;;8.50;3.83;;;11.70;29.90;;;;;;5094799;28;20038;-70
2022/03/21 13:11:45;;;;;;;7.32;4.35;;;11.80;29.60;;;;;;5095120;28;20062;-70
2022/03/21 13:14:18;;;;;;;7.45;4.38;;;11.70;29.50;;;;;;5092837;28;20537;-70
2022/03/21 13:16:51;;;;;;;6.28;3.88;;;11.30;29.70;;;;;;5094640;28;20104;-70
2022/03/21 13:19:22;;;;;;;8.27;4.03;;;11.40;30.00;;;;;;5092190;28;20026;-70
2022/03/21 13:21:54;;;;;;;6.13;3.97;;;11.40;30.00;;;;;;5094239;27;20110;-69
2022/03/21 13:24:40;;;;;;;6.25;4.10;;;11.50;30.00;;;;;;5091833;28;20057;-70
2022/03/21 13:27:11;;;;;;;5.35;4.20;;;11.60;30.00;;;;;;5090643;28;20112;-68